Time;durP1;ratioP1;P1;durP2;ratioP2;P2;SDS_P1;SDS_P2;PMS_P1;PMS_P2;Temp;Humidity;BMP_temperature;BMP_pressure;BME280_temperature;BME280_humidity;BME280_pressure;Samples;Min_cycle;Max_cycle;Signal;HPM_P1;HPM_P2
2021/09/07 00:00:21;;;;;;;21.60;14.13;;;16.20;99.90;;;;;;6155398;23;20170;-74
2021/09/07 00:02:49;;;;;;;20.55;14.68;;;16.20;99.90;;;;;;6155481;23;20502;-74
2021/09/07 00:05:16;;;;;;;19.88;15.98;;;16.20;99.90;;;;;;6155695;23;20162;-76
2021/09/07 00:07:44;;;;;;;21.63;16.50;;;16.10;99.90;;;;;;6153870;23;20598;-76
2021/09/07 00:10:14;;;;;;;19.63;15.10;;;16.10;99.90;;;;;;6155126;23;20543;-73
2021/09/07 00:12:41;;;;;;;22.45;17.00;;;16.20;99.90;;;;;;6154399;23;20206;-73
2021/09/07 00:15:11;;;;;;;21.08;16.23;;;16.10;99.90;;;;;;6155281;23;20598;-74
2021/09/07 00:17:39;;;;;;;23.02;16.80;;;16.10;99.90;;;;;;6154465;23;20161;-76
2021/09/07 00:20:09;;;;;;;27.55;16.42;;;16.10;99.90;;;;;;6156262;23;20465;-76
2021/09/07 00:22:37;;;;;;;24.80;17.40;;;16.10;99.90;;;;;;6155550;23;20205;-74
2021/09/07 00:25:05;;;;;;;22.30;16.80;;;16.10;99.90;;;;;;6155116;23;20170;-73
2021/09/07 00:27:32;;;;;;;24.55;17.25;;;16.10;99.90;;;;;;6154375;23;20172;-75
2021/09/07 00:29:59;;;;;;;23.88;16.45;;;16.10;99.90;;;;;;6154743;23;20165;-77
2021/09/07 00:32:26;;;;;;;21.27;13.82;;;16.10;99.90;;;;;;6154448;23;20205;-75
2021/09/07 00:34:53;;;;;;;18.90;16.23;;;16.10;99.90;;;;;;6155186;23;20166;-75
2021/09/07 00:37:22;;;;;;;18.42;13.93;;;16.10;99.90;;;;;;6154626;23;20161;-73
2021/09/07 00:39:49;;;;;;;17.65;13.57;;;16.10;99.90;;;;;;6155077;23;20165;-76
2021/09/07 00:42:17;;;;;;;18.30;13.23;;;16.10;99.90;;;;;;6154304;23;20207;-74
2021/09/07 00:44:45;;;;;;;15.80;11.98;;;16.10;99.90;;;;;;6155556;23;20169;-75
2021/09/07 00:47:12;;;;;;;13.38;11.52;;;16.10;99.90;;;;;;6154496;23;20162;-77
2021/09/07 00:49:39;;;;;;;13.55;11.18;;;16.10;99.90;;;;;;6156500;23;20166;-74
2021/09/07 00:52:07;;;;;;;14.77;12.43;;;16.10;99.90;;;;;;6158201;23;20546;-73
2021/09/07 00:54:37;;;;;;;17.70;12.15;;;16.00;99.90;;;;;;6155596;23;20226;-76
2021/09/07 00:57:06;;;;;;;14.23;12.43;;;16.00;99.90;;;;;;6155050;23;20176;-75
2021/09/07 00:59:34;;;;;;;22.88;12.52;;;16.00;99.90;;;;;;6154488;23;20167;-75
2021/09/07 01:02:02;;;;;;;14.82;13.23;;;15.90;99.90;;;;;;6154544;23;20205;-75
2021/09/07 01:04:32;;;;;;;16.58;13.02;;;15.90;99.90;;;;;;6154016;23;20240;-76
2021/09/07 01:07:00;;;;;;;14.80;13.27;;;15.90;99.90;;;;;;6153835;23;20685;-74
2021/09/07 01:09:27;;;;;;;18.70;11.80;;;15.80;99.90;;;;;;6154597;23;20168;-73
2021/09/07 01:11:56;;;;;;;14.85;12.70;;;15.80;99.90;;;;;;6154413;23;20214;-75
2021/09/07 01:14:29;;;;;;;18.08;11.80;;;15.80;99.90;;;;;;6155149;23;20168;-76
2021/09/07 01:16:57;;;;;;;14.77;11.13;;;15.70;99.90;;;;;;6127940;23;20196;-74
2021/09/07 01:19:24;;;;;;;15.45;11.02;;;15.70;99.90;;;;;;6155745;23;20161;-75
2021/09/07 01:21:51;;;;;;;14.88;12.05;;;15.70;99.90;;;;;;6154540;23;20201;-74
2021/09/07 01:24:22;;;;;;;14.55;12.98;;;15.60;99.90;;;;;;6154573;23;20196;-74
2021/09/07 01:26:51;;;;;;;14.70;12.00;;;15.60;99.90;;;;;;6154800;23;20167;-74
2021/09/07 01:29:18;;;;;;;16.52;12.77;;;15.60;99.90;;;;;;6154653;23;20166;-75
2021/09/07 01:31:45;;;;;;;14.82;10.85;;;15.60;99.90;;;;;;6157008;23;20193;-74
2021/09/07 01:34:20;;;;;;;12.75;11.10;;;15.60;99.90;;;;;;6156736;23;20165;-75
2021/09/07 01:36:47;;;;;;;15.70;11.10;;;15.60;99.90;;;;;;6156504;23;20192;-75
2021/09/07 01:39:15;;;;;;;13.50;10.75;;;15.60;99.90;;;;;;6155882;23;20605;-73
2021/09/07 01:41:44;;;;;;;16.67;12.25;;;15.60;99.90;;;;;;6156725;23;20215;-75
2021/09/07 01:44:11;;;;;;;17.80;12.75;;;15.60;99.90;;;;;;6158121;23;20172;-74
2021/09/07 01:46:39;;;;;;;15.55;12.50;;;15.60;99.90;;;;;;6156366;23;20172;-76
2021/09/07 01:49:09;;;;;;;15.38;11.40;;;15.60;99.90;;;;;;6156273;23;20177;-74
2021/09/07 01:51:36;;;;;;;14.15;10.85;;;15.70;99.90;;;;;;6156639;23;20219;-76
2021/09/07 01:54:04;;;;;;;14.90;11.85;;;15.70;99.90;;;;;;6157075;23;20166;-74
2021/09/07 01:56:31;;;;;;;17.80;13.05;;;15.70;99.90;;;;;;6156320;23;20542;-75
2021/09/07 01:59:00;;;;;;;14.45;12.00;;;15.70;99.90;;;;;;6155225;23;20161;-75
2021/09/07 02:01:27;;;;;;;13.98;11.90;;;15.70;99.90;;;;;;6155728;23;20203;-75
2021/09/07 02:03:54;;;;;;;12.68;11.38;;;15.70;99.90;;;;;;6155710;23;20373;-74
2021/09/07 02:06:21;;;;;;;15.55;12.70;;;15.70;99.90;;;;;;6156487;23;20170;-75
2021/09/07 02:08:48;;;;;;;18.25;13.10;;;15.70;99.90;;;;;;6155402;23;20494;-74
2021/09/07 02:11:16;;;;;;;18.75;14.27;;;15.70;99.90;;;;;;6156189;23;20205;-72
2021/09/07 02:13:43;;;;;;;17.58;12.55;;;15.60;99.90;;;;;;6155924;23;20161;-73
2021/09/07 02:16:11;;;;;;;14.70;12.80;;;15.60;99.90;;;;;;6156368;23;20166;-75
2021/09/07 02:18:39;;;;;;;19.42;15.05;;;15.50;99.90;;;;;;6155374;23;20168;-73
2021/09/07 02:21:06;;;;;;;16.63;13.48;;;15.50;99.90;;;;;;6155996;23;20201;-74
2021/09/07 02:23:33;;;;;;;18.55;15.50;;;15.50;99.90;;;;;;6156348;23;20201;-74
2021/09/07 02:26:00;;;;;;;18.77;14.95;;;15.60;99.90;;;;;;6155939;23;20163;-75
2021/09/07 02:28:27;;;;;;;15.95;13.15;;;15.50;99.90;;;;;;6155259;23;20173;-74
2021/09/07 02:30:54;;;;;;;17.33;15.48;;;15.50;99.90;;;;;;6155467;23;20204;-74
2021/09/07 02:33:23;;;;;;;21.58;16.52;;;15.50;99.90;;;;;;6155950;23;20161;-76
2021/09/07 02:35:50;;;;;;;24.88;19.95;;;15.40;99.90;;;;;;6155834;23;20165;-75
2021/09/07 02:38:17;;;;;;;23.95;16.38;;;15.40;99.90;;;;;;6155738;23;20168;-76
2021/09/07 02:40:45;;;;;;;26.75;17.83;;;15.40;99.90;;;;;;6155055;23;20173;-75
2021/09/07 02:43:12;;;;;;;23.25;18.20;;;15.30;99.90;;;;;;6155735;23;20269;-75
2021/09/07 02:45:39;;;;;;;22.33;17.25;;;15.30;99.90;;;;;;6155689;23;20162;-74
2021/09/07 02:48:06;;;;;;;19.65;15.10;;;15.30;99.90;;;;;;6153290;23;20172;-73
2021/09/07 02:50:35;;;;;;;22.65;16.10;;;15.40;99.90;;;;;;6155570;23;20165;-74
2021/09/07 02:53:02;;;;;;;24.00;19.58;;;15.40;99.90;;;;;;6156179;23;20165;-75
2021/09/07 02:55:29;;;;;;;25.52;19.33;;;15.40;99.90;;;;;;6155355;23;20624;-74
2021/09/07 02:57:56;;;;;;;31.58;17.48;;;15.40;99.90;;;;;;6155212;23;20184;-74
2021/09/07 03:00:23;;;;;;;25.10;19.20;;;15.40;99.90;;;;;;6160403;23;20165;-73
2021/09/07 03:02:51;;;;;;;25.38;20.45;;;15.40;99.90;;;;;;6157472;23;20656;-75
2021/09/07 03:05:18;;;;;;;22.48;19.15;;;15.40;99.90;;;;;;6156032;23;20597;-75
2021/09/07 03:07:46;;;;;;;24.65;18.75;;;15.40;99.90;;;;;;6154761;23;20162;-73
2021/09/07 03:10:14;;;;;;;25.02;18.60;;;15.40;99.90;;;;;;6156023;23;20497;-75
2021/09/07 03:12:41;;;;;;;29.95;18.30;;;15.40;99.90;;;;;;6155498;23;20207;-75
2021/09/07 03:15:09;;;;;;;23.60;17.75;;;15.40;99.90;;;;;;6155636;23;20188;-73
2021/09/07 03:17:36;;;;;;;23.88;18.65;;;15.40;99.90;;;;;;6154673;23;20509;-75
2021/09/07 03:20:04;;;;;;;24.65;18.15;;;15.40;99.90;;;;;;6155643;23;20162;-73
2021/09/07 03:22:32;;;;;;;24.70;16.92;;;15.40;99.90;;;;;;6154870;23;20201;-74
2021/09/07 03:25:00;;;;;;;18.30;16.20;;;15.40;99.90;;;;;;6155903;23;20498;-74
2021/09/07 03:27:27;;;;;;;22.23;18.05;;;15.50;99.90;;;;;;6155338;23;20242;-76
2021/09/07 03:29:55;;;;;;;19.63;16.00;;;15.40;99.90;;;;;;6155183;23;20574;-75
2021/09/07 03:32:22;;;;;;;20.40;15.65;;;15.50;99.90;;;;;;6155117;23;20197;-75
2021/09/07 03:34:49;;;;;;;22.63;15.70;;;15.40;99.90;;;;;;6155504;23;20161;-74
2021/09/07 03:37:16;;;;;;;22.92;19.20;;;15.50;99.90;;;;;;6154520;23;20608;-76
2021/09/07 03:39:43;;;;;;;19.77;15.73;;;15.50;99.90;;;;;;6154799;23;20593;-75
2021/09/07 03:42:12;;;;;;;17.52;15.32;;;15.50;99.90;;;;;;6155524;23;20232;-74
2021/09/07 03:44:39;;;;;;;18.85;15.65;;;15.50;99.90;;;;;;6156038;23;20161;-76
2021/09/07 03:47:06;;;;;;;18.15;16.25;;;15.40;99.90;;;;;;6154839;23;20165;-74
2021/09/07 03:49:33;;;;;;;24.08;17.00;;;15.40;99.90;;;;;;6155149;23;20162;-73
2021/09/07 03:52:00;;;;;;;24.02;16.13;;;15.40;99.90;;;;;;6155603;23;20201;-74
2021/09/07 03:54:27;;;;;;;26.27;16.17;;;15.50;99.90;;;;;;6155516;23;20181;-75
2021/09/07 03:56:54;;;;;;;23.25;17.17;;;15.50;99.90;;;;;;6155786;23;20231;-76
2021/09/07 03:59:23;;;;;;;26.50;18.23;;;15.50;99.90;;;;;;6154199;23;20166;-75
2021/09/07 04:01:51;;;;;;;20.98;16.50;;;15.50;99.90;;;;;;6154968;23;20197;-74
2021/09/07 04:04:21;;;;;;;22.75;17.10;;;15.50;99.90;;;;;;6155369;23;20196;-73
2021/09/07 04:06:48;;;;;;;19.15;15.98;;;15.60;99.90;;;;;;6155641;23;20184;-74
2021/09/07 04:09:15;;;;;;;22.15;16.02;;;15.60;99.90;;;;;;6154745;23;20167;-75
2021/09/07 04:11:42;;;;;;;20.67;15.98;;;15.60;99.90;;;;;;6155602;23;20231;-75
2021/09/07 04:14:09;;;;;;;23.83;18.00;;;15.60;99.90;;;;;;6157574;23;20163;-74
2021/09/07 04:16:38;;;;;;;23.90;18.08;;;15.60;99.90;;;;;;6156853;23;20247;-77
2021/09/07 04:19:05;;;;;;;26.40;21.80;;;15.60;99.90;;;;;;6156366;23;20197;-74
2021/09/07 04:21:32;;;;;;;27.30;19.92;;;15.50;99.90;;;;;;6155913;23;20201;-75
2021/09/07 04:23:59;;;;;;;26.90;20.40;;;15.50;99.90;;;;;;6154134;23;20663;-75
2021/09/07 04:26:26;;;;;;;25.55;21.27;;;15.40;99.90;;;;;;6154932;23;20605;-76
2021/09/07 04:28:53;;;;;;;28.25;21.08;;;15.40;99.90;;;;;;6154267;23;20169;-76
2021/09/07 04:31:20;;;;;;;22.75;18.73;;;15.40;99.90;;;;;;6155005;23;20200;-76
2021/09/07 04:33:49;;;;;;;29.83;22.42;;;15.50;99.90;;;;;;6154868;23;20165;-76
2021/09/07 04:36:16;;;;;;;23.67;20.42;;;15.50;99.90;;;;;;6154666;23;20173;-75
2021/09/07 04:38:44;;;;;;;29.70;21.63;;;15.60;99.90;;;;;;6153838;23;20242;-75
2021/09/07 04:41:11;;;;;;;26.65;21.33;;;15.60;99.90;;;;;;6154538;23;20205;-74
2021/09/07 04:43:38;;;;;;;34.20;24.95;;;15.60;99.90;;;;;;6154941;23;20185;-76
2021/09/07 04:46:05;;;;;;;27.83;21.75;;;15.60;99.90;;;;;;6155117;23;20161;-76
2021/09/07 04:48:32;;;;;;;28.02;20.95;;;15.70;99.90;;;;;;6154184;23;20192;-76
2021/09/07 04:51:01;;;;;;;30.23;21.35;;;15.70;99.90;;;;;;6154975;23;20533;-76
2021/09/07 04:53:31;;;;;;;26.75;22.50;;;15.80;99.90;;;;;;6155609;23;20209;-76
2021/09/07 04:55:58;;;;;;;29.05;22.65;;;15.90;99.90;;;;;;6156313;23;20508;-75
2021/09/07 04:58:25;;;;;;;37.05;25.90;;;15.80;99.90;;;;;;6155578;23;20200;-75
2021/09/07 05:00:52;;;;;;;36.13;27.40;;;15.80;99.90;;;;;;6155088;23;20205;-77
2021/09/07 05:03:19;;;;;;;33.58;25.05;;;15.90;99.90;;;;;;6155369;23;20208;-77
2021/09/07 05:05:46;;;;;;;33.50;26.85;;;16.00;99.90;;;;;;6158498;23;20169;-74
2021/09/07 05:08:15;;;;;;;31.60;25.83;;;16.00;99.90;;;;;;6159495;23;20166;-75
2021/09/07 05:10:42;;;;;;;34.90;24.08;;;16.00;99.90;;;;;;6156310;23;20166;-74
2021/09/07 05:13:09;;;;;;;40.00;27.88;;;16.00;99.90;;;;;;6155581;23;20188;-79
2021/09/07 05:15:36;;;;;;;40.70;27.48;;;16.00;99.90;;;;;;6155532;23;20498;-78
2021/09/07 05:18:05;;;;;;;40.92;27.80;;;16.10;99.90;;;;;;6154641;23;20163;-77
2021/09/07 05:20:32;;;;;;;34.90;26.80;;;16.10;99.90;;;;;;6154311;23;20245;-75
2021/09/07 05:23:00;;;;;;;38.50;27.75;;;16.10;99.90;;;;;;6155302;23;20198;-78
2021/09/07 05:25:30;;;;;;;36.85;27.30;;;16.30;99.90;;;;;;6154986;23;20167;-77
2021/09/07 05:27:57;;;;;;;35.92;27.45;;;16.40;99.90;;;;;;6155650;23;20626;-75
2021/09/07 05:30:25;;;;;;;34.70;26.70;;;16.40;99.90;;;;;;6155293;23;20298;-76
2021/09/07 05:32:52;;;;;;;35.17;24.73;;;16.50;99.90;;;;;;6155034;23;20398;-74
2021/09/07 05:35:19;;;;;;;35.38;26.02;;;16.60;99.90;;;;;;6154107;23;20531;-76
2021/09/07 05:37:46;;;;;;;36.03;27.60;;;16.50;99.90;;;;;;6153965;23;20169;-74
2021/09/07 05:40:14;;;;;;;39.67;26.65;;;16.50;99.90;;;;;;6155694;23;20403;-75
2021/09/07 05:42:44;;;;;;;38.90;29.73;;;16.50;99.90;;;;;;6154263;23;20539;-77
2021/09/07 05:45:13;;;;;;;40.47;26.77;;;16.40;99.90;;;;;;6153991;23;20618;-74
2021/09/07 05:47:41;;;;;;;34.83;26.70;;;16.40;99.90;;;;;;6153605;23;20167;-77
2021/09/07 05:50:10;;;;;;;36.05;26.58;;;16.50;99.90;;;;;;6155408;23;20163;-72
2021/09/07 05:52:37;;;;;;;34.92;26.10;;;16.60;99.90;;;;;;6155559;23;20199;-76
2021/09/07 05:55:05;;;;;;;37.08;26.08;;;16.60;99.90;;;;;;6154875;23;20171;-75
2021/09/07 05:57:32;;;;;;;33.60;25.50;;;16.60;99.90;;;;;;6153801;23;20172;-76
2021/09/07 06:00:01;;;;;;;37.17;26.08;;;16.70;99.90;;;;;;6155118;23;20604;-76
2021/09/07 06:02:29;;;;;;;31.73;24.40;;;16.70;99.90;;;;;;6154644;23;20287;-75
2021/09/07 06:04:57;;;;;;;32.77;22.77;;;16.70;99.90;;;;;;6155322;23;20514;-74
2021/09/07 06:07:24;;;;;;;33.00;24.30;;;16.80;99.90;;;;;;6154571;23;20418;-77
2021/09/07 06:09:51;;;;;;;33.10;23.20;;;16.90;99.90;;;;;;6154657;23;20172;-73
2021/09/07 06:12:18;;;;;;;26.38;21.75;;;17.00;99.90;;;;;;6154374;23;20208;-72
2021/09/07 06:14:45;;;;;;;31.45;23.95;;;17.00;99.90;;;;;;6154911;23;20164;-72
2021/09/07 06:17:14;;;;;;;38.75;23.20;;;17.00;99.90;;;;;;6155202;23;20171;-73
2021/09/07 06:19:41;;;;;;;27.95;21.20;;;17.00;99.90;;;;;;6156426;23;20186;-74
2021/09/07 06:22:08;;;;;;;26.50;19.10;;;17.00;99.90;;;;;;6155365;23;20670;-75
2021/09/07 06:24:36;;;;;;;26.73;19.65;;;17.00;99.90;;;;;;6155893;23;20571;-74
2021/09/07 06:27:03;;;;;;;28.25;22.15;;;17.10;99.90;;;;;;6156722;23;20247;-74
2021/09/07 06:29:30;;;;;;;27.95;22.65;;;17.20;99.90;;;;;;6157543;23;20168;-74
2021/09/07 06:31:57;;;;;;;25.85;21.30;;;17.20;99.90;;;;;;6156999;23;20207;-73
2021/09/07 06:34:27;;;;;;;26.40;20.80;;;17.30;99.90;;;;;;6157055;23;20172;-73
2021/09/07 06:36:54;;;;;;;19.73;16.60;;;17.20;99.90;;;;;;6158600;23;20396;-73
2021/09/07 06:39:23;;;;;;;24.07;18.67;;;17.30;99.90;;;;;;6156944;23;20164;-74
2021/09/07 06:41:50;;;;;;;26.80;20.63;;;17.30;99.90;;;;;;6156490;23;20428;-73
2021/09/07 06:44:17;;;;;;;23.87;18.00;;;17.40;99.90;;;;;;6156258;23;20527;-72
2021/09/07 06:46:45;;;;;;;24.27;19.90;;;17.40;99.90;;;;;;6156571;23;20393;-75
2021/09/07 06:49:12;;;;;;;25.27;18.50;;;17.50;99.90;;;;;;6155660;23;20396;-74
2021/09/07 06:51:41;;;;;;;26.40;19.23;;;17.50;99.90;;;;;;6155710;23;20435;-75
2021/09/07 06:54:08;;;;;;;21.60;18.10;;;17.50;99.90;;;;;;6155660;23;20396;-73
2021/09/07 06:56:35;;;;;;;25.40;17.53;;;17.60;99.90;;;;;;6156277;23;20393;-72
2021/09/07 06:59:02;;;;;;;26.77;19.33;;;17.80;99.90;;;;;;6155346;23;20392;-73
2021/09/07 07:01:30;;;;;;;42.80;26.03;;;18.00;99.90;;;;;;6155339;23;20487;-74
2021/09/07 07:03:57;;;;;;;37.17;29.40;;;18.00;99.90;;;;;;6155393;23;20468;-74
2021/09/07 07:06:24;;;;;;;36.63;29.13;;;17.90;99.90;;;;;;6156831;23;20393;-71
2021/09/07 07:08:53;;;;;;;39.43;27.63;;;17.90;99.90;;;;;;6162428;23;20393;-74
2021/09/07 07:11:20;;;;;;;31.80;23.10;;;17.90;99.90;;;;;;6155962;23;20443;-73
2021/09/07 07:13:47;;;;;;;31.63;24.23;;;18.00;99.90;;;;;;6156538;23;20393;-72
2021/09/07 07:16:14;;;;;;;30.93;26.80;;;18.10;99.90;;;;;;6155888;23;20871;-73
2021/09/07 07:18:42;;;;;;;34.70;26.50;;;18.30;99.90;;;;;;6155547;23;20393;-74
2021/09/07 07:21:09;;;;;;;31.27;25.60;;;18.20;99.90;;;;;;6155870;23;20435;-75
2021/09/07 07:23:36;;;;;;;28.47;25.00;;;18.40;99.90;;;;;;6156483;23;20428;-75
2021/09/07 07:26:05;;;;;;;30.13;25.07;;;18.60;99.90;;;;;;6155459;23;20886;-73
2021/09/07 07:28:32;;;;;;;25.73;20.93;;;18.90;99.90;;;;;;6154864;23;20401;-74
2021/09/07 07:30:59;;;;;;;27.70;20.10;;;19.10;99.90;;;;;;6155564;23;20428;-70
2021/09/07 07:33:26;;;;;;;22.93;18.63;;;19.50;99.90;;;;;;6155083;23;20389;-72
2021/09/07 07:35:53;;;;;;;24.83;18.33;;;19.80;99.90;;;;;;6155370;23;20440;-75
2021/09/07 07:38:21;;;;;;;24.83;18.20;;;20.10;99.90;;;;;;6154680;23;20405;-72
2021/09/07 07:40:48;;;;;;;27.07;17.60;;;20.40;99.90;;;;;;6155187;23;20424;-73
2021/09/07 07:43:17;;;;;;;23.87;17.03;;;20.70;99.90;;;;;;6155224;23;20515;-70
2021/09/07 07:45:44;;;;;;;18.77;16.07;;;21.30;99.90;;;;;;6154514;23;20734;-71
2021/09/07 07:48:11;;;;;;;24.63;17.30;;;21.80;99.90;;;;;;6153627;23;20389;-70
2021/09/07 07:50:38;;;;;;;19.83;17.13;;;22.30;99.90;;;;;;6154551;23;20399;-74
2021/09/07 07:53:05;;;;;;;17.87;15.03;;;22.30;99.90;;;;;;6155759;23;20396;-73
2021/09/07 07:55:33;;;;;;;20.50;15.07;;;22.60;99.90;;;;;;6155447;23;20393;-74
2021/09/07 07:58:00;;;;;;;22.80;17.60;;;22.80;99.90;;;;;;6154725;23;20479;-73
2021/09/07 08:00:28;;;;;;;22.00;17.10;;;22.80;99.90;;;;;;6155402;23;20393;-72
2021/09/07 08:02:55;;;;;;;23.20;17.67;;;22.70;99.90;;;;;;6155757;23;20565;-71
2021/09/07 08:05:23;;;;;;;21.53;17.17;;;22.90;99.90;;;;;;6154823;23;20767;-74
2021/09/07 08:07:50;;;;;;;19.93;17.27;;;23.00;99.90;;;;;;6154476;23;20393;-73
2021/09/07 08:10:20;;;;;;;18.80;15.93;;;23.30;99.90;;;;;;6154276;23;20407;-73
2021/09/07 08:12:47;;;;;;;19.60;15.57;;;23.60;99.90;;;;;;6154807;23;20443;-73
2021/09/07 08:15:14;;;;;;;20.90;17.10;;;23.50;99.90;;;;;;6154842;23;20400;-74
2021/09/07 08:17:44;;;;;;;19.50;15.20;;;23.40;99.90;;;;;;6153880;23;20388;-74
2021/09/07 08:20:12;;;;;;;20.00;14.80;;;23.20;99.90;;;;;;6155110;23;20401;-74
2021/09/07 08:22:39;;;;;;;18.30;14.00;;;23.00;99.90;;;;;;6154557;23;20475;-74
2021/09/07 08:25:08;;;;;;;20.93;14.00;;;22.80;99.90;;;;;;6154969;23;20928;-73
2021/09/07 08:27:35;;;;;;;19.40;16.83;;;22.40;99.90;;;;;;6154361;23;20393;-74
2021/09/07 08:30:02;;;;;;;25.80;17.30;;;22.20;99.90;;;;;;6154230;23;20400;-73
2021/09/07 08:32:29;;;;;;;19.80;14.67;;;22.30;99.90;;;;;;6153679;23;20435;-73
2021/09/07 08:34:58;;;;;;;16.77;15.03;;;22.30;99.90;;;;;;6154544;23;20399;-72
2021/09/07 08:37:26;;;;;;;16.23;13.87;;;22.40;99.90;;;;;;6154668;23;20828;-72
2021/09/07 08:39:53;;;;;;;15.27;13.60;;;22.50;99.90;;;;;;6153903;23;20404;-71
2021/09/07 08:42:20;;;;;;;15.77;11.57;;;22.60;99.90;;;;;;6155718;23;20920;-74
2021/09/07 08:44:48;;;;;;;14.27;9.90;;;22.50;99.90;;;;;;6155002;23;20511;-73
2021/09/07 08:47:17;;;;;;;14.90;9.67;;;22.30;99.90;;;;;;6155266;23;20393;-73
2021/09/07 08:49:45;;;;;;;14.20;8.57;;;22.20;99.90;;;;;;6153479;23;20397;-72
2021/09/07 08:52:14;;;;;;;18.73;10.30;;;22.40;99.90;;;;;;6155184;23;20436;-72
2021/09/07 08:54:42;;;;;;;19.93;13.60;;;22.30;99.90;;;;;;6155221;23;20393;-74
2021/09/07 08:57:09;;;;;;;13.83;10.00;;;22.10;99.90;;;;;;6155588;23;20393;-71
2021/09/07 08:59:37;;;;;;;16.80;11.93;;;22.00;99.90;;;;;;6154904;23;20742;-73
2021/09/07 09:02:15;;;;;;;15.30;11.13;;;22.10;99.90;;;;;;6154457;23;20926;-74
2021/09/07 09:04:46;;;;;;;16.70;10.97;;;22.10;99.90;;;;;;6154422;23;20431;-72
2021/09/07 09:07:22;;;;;;;13.90;10.73;;;22.00;99.90;;;;;;6155323;23;20401;-73
2021/09/07 09:09:50;;;;;;;17.20;11.20;;;22.10;99.90;;;;;;6155785;23;20388;-72
2021/09/07 09:12:18;;;;;;;17.80;12.67;;;22.00;99.90;;;;;;6154756;23;20443;-75
2021/09/07 09:14:49;;;;;;;19.70;13.87;;;21.80;99.90;;;;;;6155482;23;20703;-74
2021/09/07 09:17:24;;;;;;;13.33;10.30;;;21.80;99.90;;;;;;6154834;23;20399;-73
2021/09/07 09:20:08;;;;;;;16.33;10.57;;;22.90;99.90;;;;;;6155002;23;20396;-73
2021/09/07 09:22:48;;;;;;;21.90;12.43;;;24.00;98.90;;;;;;6153703;23;20519;-74
2021/09/07 09:25:34;;;;;;;16.93;11.43;;;25.30;96.90;;;;;;6128497;23;20432;-74
2021/09/07 09:28:21;;;;;;;15.80;11.93;;;26.40;93.30;;;;;;6132664;23;20412;-75
2021/09/07 09:30:51;;;;;;;19.60;13.13;;;27.30;91.90;;;;;;6154859;23;20479;-72
2021/09/07 09:33:20;;;;;;;21.20;11.90;;;28.10;91.40;;;;;;6155946;23;20390;-72
2021/09/07 09:35:53;;;;;;;11.13;9.93;;;28.80;89.80;;;;;;6155996;23;20381;-72
2021/09/07 09:38:44;;;;;;;19.57;13.03;;;29.40;87.00;;;;;;6155103;23;20393;-75
2021/09/07 09:41:11;;;;;;;14.77;12.77;;;28.60;84.80;;;;;;6155007;23;20420;-74
2021/09/07 09:43:43;;;;;;;17.73;12.60;;;28.40;87.00;;;;;;6154990;23;20450;-74
2021/09/07 09:46:24;;;;;;;17.43;14.40;;;28.40;87.90;;;;;;6153776;23;20931;-73
2021/09/07 09:48:52;;;;;;;18.13;12.47;;;28.20;87.50;;;;;;6153422;23;20396;-72
2021/09/07 09:51:23;;;;;;;17.70;13.20;;;28.00;89.00;;;;;;6156094;23;20434;-72
2021/09/07 09:53:52;;;;;;;14.90;12.57;;;28.30;88.70;;;;;;6156762;23;20433;-72
2021/09/07 09:56:19;;;;;;;18.10;13.47;;;28.60;88.90;;;;;;6157223;23;20839;-72
2021/09/07 09:58:46;;;;;;;16.70;13.67;;;28.80;85.80;;;;;;6156146;23;20393;-72
2021/09/07 10:01:18;;;;;;;20.23;14.17;;;28.60;86.90;;;;;;6156684;23;20762;-71
2021/09/07 10:03:47;;;;;;;18.57;13.87;;;28.30;86.50;;;;;;6156788;23;20389;-75
2021/09/07 10:06:17;;;;;;;16.67;12.10;;;28.40;87.10;;;;;;6156321;23;20432;-72
2021/09/07 10:08:44;;;;;;;16.33;11.97;;;28.60;86.80;;;;;;6156292;23;20397;-74
2021/09/07 10:11:16;;;;;;;16.33;12.63;;;28.60;86.10;;;;;;6156255;23;20432;-75
2021/09/07 10:13:47;;;;;;;16.10;13.10;;;28.50;87.30;;;;;;6156694;23;20399;-75
2021/09/07 10:16:29;;;;;;;14.63;12.00;;;27.90;86.40;;;;;;6156427;23;20387;-71
2021/09/07 10:18:58;;;;;;;17.23;12.30;;;27.20;90.20;;;;;;6155943;23;20785;-74
2021/09/07 10:24:52;;;;;;;13.60;11.90;;;27.40;90.60;;;;;;6156759;23;20476;-75
2021/09/07 10:27:21;;;;;;;17.63;12.00;;;27.80;87.00;;;;;;6156073;23;20397;-73
2021/09/07 10:29:48;;;;;;;14.80;11.83;;;27.90;86.90;;;;;;6155985;23;20397;-75
2021/09/07 10:32:34;;;;;;;18.63;13.10;;;27.90;86.50;;;;;;6156099;23;20761;-75
2021/09/07 10:35:14;;;;;;;14.50;12.10;;;27.40;86.70;;;;;;6155920;23;20392;-73
2021/09/07 10:38:09;;;;;;;16.83;11.07;;;27.20;89.90;;;;;;6156210;23;20393;-74
2021/09/07 10:40:45;;;;;;;14.30;11.17;;;26.90;88.70;;;;;;6130345;23;20994;-72
2021/09/07 10:43:14;;;;;;;16.70;12.20;;;26.90;89.20;;;;;;6156436;23;20392;-74
2021/09/07 10:45:42;;;;;;;18.27;12.90;;;26.80;88.90;;;;;;6156026;23;20428;-74
2021/09/07 10:48:32;;;;;;;13.90;11.40;;;26.90;90.50;;;;;;6154965;23;20393;-72
2021/09/07 10:51:00;;;;;;;16.20;13.30;;;27.00;90.10;;;;;;6155679;23;20454;-73
2021/09/07 10:53:28;;;;;;;17.67;13.67;;;26.80;89.40;;;;;;6155497;23;20506;-72
2021/09/07 10:55:55;;;;;;;16.77;11.83;;;26.70;90.40;;;;;;6155450;23;20396;-75
2021/09/07 10:58:34;;;;;;;14.87;12.67;;;26.80;89.80;;;;;;6155159;23;20401;-73
2021/09/07 11:01:32;;;;;;;14.03;12.50;;;26.50;90.10;;;;;;6155677;23;20502;-73
2021/09/07 11:04:32;;;;;;;20.90;12.47;;;26.50;90.60;;;;;;6036334;23;20392;-72
2021/09/07 11:07:01;;;;;;;19.93;13.70;;;26.20;91.00;;;;;;6156139;23;20393;-75
2021/09/07 11:09:52;;;;;;;14.47;11.10;;;26.10;91.30;;;;;;6154540;23;20403;-72
2021/09/07 11:12:26;;;;;;;16.27;12.20;;;26.30;91.20;;;;;;6155962;23;20509;-72
2021/09/07 11:15:12;;;;;;;18.07;13.00;;;26.50;90.50;;;;;;6156431;23;20393;-75
2021/09/07 11:17:51;;;;;;;13.33;11.27;;;26.40;90.30;;;;;;6156929;23;20428;-75
2021/09/07 11:20:20;;;;;;;13.33;11.83;;;26.30;90.40;;;;;;6129995;23;20467;-73
2021/09/07 11:22:54;;;;;;;15.60;13.23;;;26.30;90.50;;;;;;6155368;23;20436;-72
2021/09/07 11:25:23;;;;;;;15.27;11.83;;;26.30;90.60;;;;;;6156981;23;20431;-74
2021/09/07 11:27:52;;;;;;;16.30;13.30;;;26.10;91.00;;;;;;6156774;23;20405;-72
2021/09/07 11:30:24;;;;;;;17.33;12.30;;;25.80;90.70;;;;;;6155621;23;20813;-74
2021/09/07 11:32:57;;;;;;;16.57;13.03;;;25.80;90.80;;;;;;6155750;23;20436;-72
2021/09/07 11:35:24;;;;;;;16.27;11.80;;;25.50;91.20;;;;;;6155382;23;20389;-72
2021/09/07 11:37:58;;;;;;;15.17;12.23;;;25.40;91.70;;;;;;6155967;23;20400;-73
2021/09/07 11:40:25;;;;;;;14.97;11.30;;;25.20;92.00;;;;;;6154804;23;20393;-74
2021/09/07 11:42:52;;;;;;;16.37;13.27;;;25.30;92.50;;;;;;6155914;23;20392;-72
2021/09/07 11:45:39;;;;;;;16.10;12.10;;;25.50;92.00;;;;;;6157090;23;20471;-72
2021/09/07 11:48:07;;;;;;;18.07;13.20;;;25.30;92.10;;;;;;6155429;23;20393;-71
2021/09/07 11:50:36;;;;;;;15.20;11.83;;;25.10;92.40;;;;;;6155796;23;20755;-71
2021/09/07 11:53:09;;;;;;;15.30;11.47;;;25.20;92.60;;;;;;6155486;23;20480;-73
2021/09/07 11:55:45;;;;;;;17.97;12.70;;;25.10;92.00;;;;;;6154718;23;20385;-74
2021/09/07 11:58:38;;;;;;;16.83;12.23;;;25.10;92.00;;;;;;6153957;23;20482;-72
2021/09/07 12:01:15;;;;;;;17.03;12.80;;;25.30;91.90;;;;;;6150150;23;20428;-73
2021/09/07 12:03:51;;;;;;;16.33;10.97;;;25.40;91.70;;;;;;6155913;23;20882;-75
2021/09/07 12:06:21;;;;;;;20.77;12.27;;;25.30;91.30;;;;;;6155472;23;20438;-76
2021/09/07 12:08:49;;;;;;;17.63;11.47;;;25.20;91.30;;;;;;6154204;23;20388;-74
2021/09/07 12:11:31;;;;;;;17.23;11.20;;;25.00;91.10;;;;;;6154865;23;20777;-73
2021/09/07 12:14:06;;;;;;;13.43;10.93;;;25.10;91.70;;;;;;6154912;23;20396;-75
2021/09/07 12:16:37;;;;;;;15.27;11.40;;;25.30;91.00;;;;;;6155933;23;20472;-75
2021/09/07 12:19:31;;;;;;;12.83;10.13;;;25.40;90.70;;;;;;6154133;23;20397;-73
2021/09/07 12:22:09;;;;;;;14.57;9.73;;;25.50;90.50;;;;;;6151267;23;20459;-72
2021/09/07 12:24:36;;;;;;;17.63;12.60;;;25.60;90.60;;;;;;6153703;23;20399;-74
2021/09/07 12:27:19;;;;;;;14.23;11.50;;;25.50;90.60;;;;;;6154525;23;20436;-73
2021/09/07 12:30:19;;;;;;;12.87;11.07;;;25.20;90.90;;;;;;6153721;23;20871;-72
2021/09/07 12:32:53;;;;;;;15.80;10.83;;;25.00;91.30;;;;;;6155143;23;20436;-74
2021/09/07 12:35:32;;;;;;;21.07;12.10;;;25.30;91.30;;;;;;6129101;23;20419;-75
2021/09/07 12:38:01;;;;;;;16.20;10.53;;;25.30;91.10;;;;;;6154587;23;20389;-75
2021/09/07 12:40:29;;;;;;;15.73;10.77;;;25.10;91.40;;;;;;6155410;23;20392;-76
2021/09/07 12:42:56;;;;;;;12.97;10.60;;;25.10;91.60;;;;;;6154404;23;20403;-74